Time;durP1;ratioP1;P1;durP2;ratioP2;P2;SDS_P1;SDS_P2;PMS_P1;PMS_P2;Temp;Humidity;BMP_temperature;BMP_pressure;BME280_temperature;BME280_humidity;BME280_pressure;Samples;Min_cycle;Max_cycle;Signal;HPM_P1;HPM_P2
2021/05/31 00:02:21;;;;;;;5.88;5.38;;;17.10;47.50;;;;;;4985307;28;20038;-73
2021/05/31 00:04:47;;;;;;;6.50;5.97;;;17.00;47.40;;;;;;4985492;28;20037;-73
2021/05/31 00:07:20;;;;;;;5.82;5.32;;;17.00;47.60;;;;;;4984997;28;20033;-72
2021/05/31 00:09:51;;;;;;;5.72;5.22;;;16.90;47.50;;;;;;4986343;28;20077;-72
2021/05/31 00:12:18;;;;;;;5.85;5.35;;;16.90;47.50;;;;;;4986535;28;20399;-73
2021/05/31 00:14:45;;;;;;;6.18;5.57;;;16.90;47.70;;;;;;4986504;28;20366;-72
2021/05/31 00:17:12;;;;;;;5.05;4.65;;;16.80;47.60;;;;;;4984833;28;20041;-72
2021/05/31 00:19:40;;;;;;;5.40;5.00;;;16.80;47.70;;;;;;4986556;28;20093;-72
2021/05/31 00:22:06;;;;;;;7.22;5.30;;;16.80;47.70;;;;;;4986087;28;20425;-72
2021/05/31 00:24:33;;;;;;;5.32;4.80;;;16.70;47.70;;;;;;4986343;28;20026;-73
2021/05/31 00:26:59;;;;;;;5.10;4.68;;;16.70;47.70;;;;;;4986332;28;20041;-71
2021/05/31 00:29:25;;;;;;;6.15;4.97;;;16.60;47.70;;;;;;4984931;28;20034;-71
2021/05/31 00:31:53;;;;;;;5.20;4.68;;;16.60;47.70;;;;;;4984958;28;20054;-71
2021/05/31 00:34:20;;;;;;;5.00;4.60;;;16.60;47.80;;;;;;4985590;28;20046;-73
2021/05/31 00:36:46;;;;;;;5.72;5.20;;;16.50;47.80;;;;;;4987269;28;20070;-72
2021/05/31 00:39:12;;;;;;;4.53;4.22;;;16.50;47.80;;;;;;4985447;28;20125;-73
2021/05/31 00:41:43;;;;;;;5.78;5.28;;;16.50;47.90;;;;;;4986665;28;20022;-72
2021/05/31 00:44:09;;;;;;;6.43;5.82;;;16.50;48.10;;;;;;4985867;28;20100;-73
2021/05/31 00:46:36;;;;;;;5.28;4.75;;;16.40;47.90;;;;;;4984596;28;20862;-73
2021/05/31 00:49:03;;;;;;;6.05;5.45;;;16.40;48.00;;;;;;4985030;28;20026;-73
2021/05/31 00:51:29;;;;;;;5.20;4.80;;;16.40;48.10;;;;;;4968794;28;20044;-74
2021/05/31 00:53:56;;;;;;;5.18;4.78;;;16.30;47.90;;;;;;4968465;28;20027;-74
2021/05/31 00:56:23;;;;;;;5.43;5.03;;;16.30;48.00;;;;;;4986025;28;20161;-72
2021/05/31 00:58:48;;;;;;;5.80;5.30;;;16.30;48.10;;;;;;4984631;28;20049;-72
2021/05/31 01:01:15;;;;;;;5.90;5.30;;;16.20;48.00;;;;;;4984898;28;20030;-72
2021/05/31 01:03:42;;;;;;;5.53;5.03;;;16.20;48.10;;;;;;4986942;28;20023;-72
2021/05/31 01:06:11;;;;;;;5.38;4.88;;;16.20;48.20;;;;;;4989429;28;20390;-72
2021/05/31 01:08:54;;;;;;;5.25;4.85;;;16.20;48.30;;;;;;4989665;28;20030;-73
2021/05/31 01:11:52;;;;;;;5.60;5.10;;;16.10;48.30;;;;;;4988591;28;20041;-74
2021/05/31 01:14:25;;;;;;;6.22;5.63;;;16.10;48.20;;;;;;4976957;28;20046;-71
2021/05/31 01:16:58;;;;;;;5.80;5.30;;;16.00;48.20;;;;;;4989122;28;20536;-73
2021/05/31 01:19:51;;;;;;;5.85;5.35;;;16.00;48.20;;;;;;4989455;28;20027;-74
2021/05/31 01:22:22;;;;;;;5.82;5.30;;;16.00;48.40;;;;;;4989096;28;20417;-74
2021/05/31 01:24:50;;;;;;;5.95;5.25;;;15.90;48.20;;;;;;4989609;28;20113;-73
2021/05/31 01:27:19;;;;;;;5.60;5.10;;;15.90;48.30;;;;;;4988876;28;20044;-73
2021/05/31 01:30:06;;;;;;;6.05;5.45;;;15.90;48.40;;;;;;4989334;28;20101;-72
2021/05/31 01:32:36;;;;;;;6.85;5.60;;;15.80;48.40;;;;;;4988746;28;20022;-73
2021/05/31 01:35:06;;;;;;;6.22;5.25;;;15.80;48.40;;;;;;4990896;28;20296;-74
2021/05/31 01:37:35;;;;;;;6.53;5.63;;;15.80;48.40;;;;;;4989688;28;20129;-73
2021/05/31 01:40:05;;;;;;;6.55;5.47;;;15.70;48.40;;;;;;4990543;28;20034;-72
2021/05/31 01:42:32;;;;;;;5.78;5.28;;;15.70;48.40;;;;;;4989292;28;20477;-74
2021/05/31 01:44:59;;;;;;;5.72;5.25;;;15.70;48.50;;;;;;4989194;28;20113;-74
2021/05/31 01:47:26;;;;;;;5.72;5.22;;;15.70;48.50;;;;;;4989389;22;20050;-81
2021/05/31 01:49:54;;;;;;;7.28;6.03;;;15.70;48.60;;;;;;4974643;28;20101;-82
2021/05/31 01:52:23;;;;;;;7.15;6.10;;;15.60;48.50;;;;;;4974390;28;20043;-81
2021/05/31 01:54:54;;;;;;;5.85;5.35;;;15.60;48.60;;;;;;4974756;28;20478;-81
2021/05/31 01:57:21;;;;;;;7.03;6.30;;;15.60;48.70;;;;;;4974885;28;20041;-81
2021/05/31 01:59:48;;;;;;;6.65;5.95;;;15.60;48.70;;;;;;4974732;28;20277;-82
2021/05/31 02:02:16;;;;;;;6.00;5.45;;;15.60;48.70;;;;;;4974444;28;20035;-82
2021/05/31 02:04:42;;;;;;;6.35;5.75;;;15.60;48.80;;;;;;4974112;28;20027;-80
2021/05/31 02:07:08;;;;;;;6.72;5.70;;;15.50;48.60;;;;;;4974484;28;20508;-81
2021/05/31 02:09:34;;;;;;;6.03;5.53;;;15.50;48.80;;;;;;4974347;28;20038;-79
2021/05/31 02:12:03;;;;;;;7.13;5.60;;;15.50;48.80;;;;;;4973866;28;20094;-81
2021/05/31 02:15:04;;;;;;;8.15;7.03;;;15.50;48.80;;;;;;4973010;28;20446;-81
2021/05/31 02:18:08;;;;;;;6.22;5.63;;;15.50;49.00;;;;;;4974211;28;20046;-82
2021/05/31 02:20:36;;;;;;;6.75;6.05;;;15.40;48.80;;;;;;4974108;28;20043;-80
2021/05/31 02:23:05;;;;;;;7.13;6.40;;;15.40;48.80;;;;;;4974606;28;20035;-81
2021/05/31 02:25:32;;;;;;;6.75;6.15;;;15.40;48.90;;;;;;4973780;28;20030;-81
2021/05/31 02:27:58;;;;;;;7.78;6.30;;;15.40;48.90;;;;;;4973903;28;20038;-80
2021/05/31 02:30:25;;;;;;;6.93;6.22;;;15.40;49.00;;;;;;4973786;28;20041;-81
2021/05/31 02:33:05;;;;;;;6.10;5.50;;;15.40;49.00;;;;;;4972721;28;20147;-81
2021/05/31 02:35:38;;;;;;;6.82;5.82;;;15.30;49.00;;;;;;4973902;28;20171;-81
2021/05/31 02:38:05;;;;;;;6.97;6.28;;;15.30;49.00;;;;;;4973895;28;20394;-81
2021/05/31 02:40:33;;;;;;;8.60;6.88;;;15.30;49.00;;;;;;4973911;28;20030;-81
2021/05/31 02:43:02;;;;;;;10.18;6.28;;;15.20;48.90;;;;;;4973549;28;20041;-83
2021/05/31 02:45:29;;;;;;;7.78;7.05;;;15.20;49.00;;;;;;4974077;28;20549;-81
2021/05/31 02:47:57;;;;;;;7.43;6.82;;;15.20;49.00;;;;;;4973798;28;20513;-81
2021/05/31 02:50:25;;;;;;;7.82;7.13;;;15.20;49.10;;;;;;4973572;28;20516;-82
2021/05/31 02:52:51;;;;;;;7.53;6.85;;;15.20;49.10;;;;;;4973694;28;20042;-82
2021/05/31 02:55:20;;;;;;;7.13;6.50;;;15.20;49.10;;;;;;4973453;28;20502;-80
2021/05/31 02:57:46;;;;;;;6.85;6.25;;;15.20;49.30;;;;;;4973609;28;20507;-81
2021/05/31 03:00:15;;;;;;;7.47;6.78;;;15.10;49.10;;;;;;4973221;28;20037;-81
2021/05/31 03:02:41;;;;;;;9.20;7.50;;;15.10;49.10;;;;;;4973562;28;20114;-81
2021/05/31 03:05:09;;;;;;;7.78;7.07;;;15.10;49.10;;;;;;4973602;28;20031;-80
2021/05/31 03:07:35;;;;;;;7.18;6.47;;;15.10;49.20;;;;;;4973291;28;20035;-80
2021/05/31 03:10:02;;;;;;;8.77;7.35;;;15.00;49.10;;;;;;4972176;28;20109;-80
2021/05/31 03:12:27;;;;;;;7.90;7.20;;;15.00;49.10;;;;;;4972949;28;20034;-81
2021/05/31 03:14:53;;;;;;;9.23;7.85;;;15.00;49.10;;;;;;4973534;28;20125;-80
2021/05/31 03:17:20;;;;;;;8.88;7.63;;;15.00;49.20;;;;;;4973225;28;20037;-81
2021/05/31 03:19:46;;;;;;;8.68;7.70;;;15.00;49.30;;;;;;4973568;28;20444;-81
2021/05/31 03:22:12;;;;;;;9.07;8.20;;;14.90;49.20;;;;;;4973599;28;20517;-80
2021/05/31 03:24:38;;;;;;;8.18;7.30;;;14.90;49.20;;;;;;4973063;28;20113;-80
2021/05/31 03:27:05;;;;;;;8.98;7.53;;;14.90;49.30;;;;;;4971375;28;20499;-80
2021/05/31 03:29:31;;;;;;;8.40;6.43;;;14.90;49.40;;;;;;4972832;28;20030;-80
2021/05/31 03:31:57;;;;;;;8.27;7.53;;;14.80;49.20;;;;;;4972854;28;20034;-80
2021/05/31 03:34:24;;;;;;;9.30;8.05;;;14.80;49.30;;;;;;4973156;28;20043;-80
2021/05/31 03:36:50;;;;;;;8.77;7.88;;;14.70;49.20;;;;;;4971412;28;20054;-79
2021/05/31 03:39:16;;;;;;;10.95;8.95;;;14.70;49.20;;;;;;4972822;28;20320;-82
2021/05/31 03:41:42;;;;;;;9.65;8.43;;;14.70;49.30;;;;;;4955488;28;20035;-80
2021/05/31 03:44:09;;;;;;;9.88;8.95;;;14.60;49.20;;;;;;4972894;28;20033;-80
2021/05/31 03:46:35;;;;;;;8.85;8.05;;;14.60;49.20;;;;;;4972343;28;20063;-81
2021/05/31 03:49:01;;;;;;;10.00;9.00;;;14.60;49.30;;;;;;4972997;28;20430;-80
2021/05/31 03:51:27;;;;;;;9.20;8.48;;;14.60;49.40;;;;;;4972614;28;20121;-80
2021/05/31 03:53:53;;;;;;;9.45;8.32;;;14.50;49.20;;;;;;4971309;28;20037;-81
2021/05/31 03:56:19;;;;;;;9.77;8.88;;;14.50;49.30;;;;;;4972670;28;20045;-80
2021/05/31 03:58:46;;;;;;;9.13;8.32;;;14.50;49.30;;;;;;4972439;28;20386;-81
2021/05/31 04:01:14;;;;;;;9.57;8.55;;;14.50;49.40;;;;;;4971150;28;20371;-80
2021/05/31 04:03:41;;;;;;;9.38;8.52;;;14.40;49.30;;;;;;4971449;28;20033;-81
2021/05/31 04:06:23;;;;;;;10.55;8.85;;;14.40;49.30;;;;;;4972434;28;20030;-80
2021/05/31 04:11:34;;;;;;;10.25;9.25;;;14.30;49.20;;;;;;4972591;28;20244;-80
2021/05/31 04:14:09;;;;;;;10.25;9.32;;;14.40;49.50;;;;;;4972367;28;20027;-80
2021/05/31 04:16:37;;;;;;;9.85;8.93;;;14.40;49.70;;;;;;4972154;28;20050;-80
2021/05/31 04:19:05;;;;;;;11.20;9.95;;;14.30;49.40;;;;;;4972602;28;20033;-80
2021/05/31 04:21:32;;;;;;;10.23;8.50;;;14.30;49.50;;;;;;4972212;28;20030;-82
2021/05/31 04:23:58;;;;;;;9.95;8.85;;;14.30;49.50;;;;;;4972391;28;20039;-81
2021/05/31 04:26:25;;;;;;;10.27;9.20;;;14.30;49.60;;;;;;4972001;28;20041;-81
2021/05/31 04:28:51;;;;;;;10.32;9.38;;;14.20;49.40;;;;;;4971192;28;20081;-81
2021/05/31 04:31:17;;;;;;;11.80;10.60;;;14.20;49.50;;;;;;4971137;28;20057;-80
2021/05/31 04:33:43;;;;;;;11.40;10.30;;;14.20;49.60;;;;;;4970983;28;20478;-81
2021/05/31 04:36:10;;;;;;;11.85;10.13;;;14.20;49.60;;;;;;4972075;28;20097;-80
2021/05/31 04:38:37;;;;;;;10.50;9.52;;;14.20;49.70;;;;;;4974422;28;20066;-79
2021/05/31 04:41:03;;;;;;;11.55;9.65;;;14.10;49.50;;;;;;4975814;28;20435;-80
2021/05/31 04:43:29;;;;;;;10.75;9.75;;;14.10;49.50;;;;;;4975904;28;20398;-80
2021/05/31 04:45:55;;;;;;;11.13;10.02;;;14.10;49.60;;;;;;4975463;28;20027;-80
2021/05/31 04:48:21;;;;;;;11.63;10.27;;;14.10;49.60;;;;;;4959981;28;20100;-80
2021/05/31 04:50:48;;;;;;;10.65;9.70;;;14.10;49.70;;;;;;4952114;28;20031;-81
2021/05/31 04:53:14;;;;;;;11.10;10.00;;;14.10;49.70;;;;;;4952935;28;20082;-81
2021/05/31 04:55:41;;;;;;;11.60;10.50;;;14.10;49.70;;;;;;4953131;28;20457;-81
2021/05/31 04:58:07;;;;;;;12.35;11.07;;;14.10;49.80;;;;;;4959306;28;20031;-82
2021/05/31 05:00:33;;;;;;;12.40;10.23;;;14.10;49.80;;;;;;4971116;28;20422;-81
2021/05/31 05:02:58;;;;;;;12.98;10.30;;;14.10;49.80;;;;;;4969502;28;20019;-82
2021/05/31 05:05:25;;;;;;;12.35;10.38;;;14.10;49.90;;;;;;4971044;28;20556;-81
2021/05/31 05:07:51;;;;;;;12.05;10.82;;;14.10;49.90;;;;;;4970667;28;20057;-81
2021/05/31 05:10:20;;;;;;;11.63;10.60;;;14.10;49.90;;;;;;4969018;28;20022;-80
2021/05/31 05:12:48;;;;;;;11.90;10.80;;;14.10;49.90;;;;;;4970176;28;20034;-80
2021/05/31 05:15:16;;;;;;;11.63;10.43;;;14.10;50.00;;;;;;4970918;28;20233;-80
2021/05/31 05:17:43;;;;;;;11.63;10.55;;;14.10;49.90;;;;;;4970790;28;20065;-81
2021/05/31 05:20:10;;;;;;;12.13;10.93;;;14.10;49.90;;;;;;4971015;28;20102;-81
2021/05/31 05:22:36;;;;;;;12.23;10.23;;;14.20;50.10;;;;;;4970357;28;20030;-80
2021/05/31 05:25:03;;;;;;;11.98;10.85;;;14.20;50.10;;;;;;4969312;28;20026;-82
2021/05/31 05:27:29;;;;;;;13.63;11.45;;;14.20;50.70;;;;;;4970553;28;20030;-80
2021/05/31 05:29:55;;;;;;;12.50;11.38;;;14.20;50.10;;;;;;4970380;28;20074;-79
2021/05/31 05:32:21;;;;;;;11.05;9.75;;;14.20;50.10;;;;;;4970554;28;20077;-80
2021/05/31 05:34:48;;;;;;;14.43;12.13;;;14.30;50.30;;;;;;4970452;28;20046;-80
2021/05/31 05:37:24;;;;;;;12.90;11.68;;;14.30;50.40;;;;;;4970235;28;20104;-82
2021/05/31 05:40:17;;;;;;;12.60;11.40;;;14.30;50.40;;;;;;4970359;28;20050;-80
2021/05/31 05:45:35;;;;;;;13.35;11.90;;;14.40;50.50;;;;;;4970542;28;20544;-79
2021/05/31 05:48:01;;;;;;;13.23;12.00;;;14.40;50.50;;;;;;4969532;28;20051;-81
2021/05/31 05:50:27;;;;;;;13.18;11.93;;;14.50;50.70;;;;;;4969388;28;20038;-80
2021/05/31 05:52:53;;;;;;;13.05;11.77;;;14.50;50.70;;;;;;4968465;28;20093;-80
2021/05/31 05:55:19;;;;;;;14.15;12.45;;;14.60;50.90;;;;;;4968283;28;20042;-79
2021/05/31 05:57:46;;;;;;;14.70;12.77;;;14.70;51.10;;;;;;4968316;28;20035;-81
2021/05/31 06:00:21;;;;;;;13.88;12.57;;;14.80;51.40;;;;;;4968358;28;20486;-78
2021/05/31 06:02:47;;;;;;;14.32;12.88;;;14.90;51.70;;;;;;4969390;28;20043;-79
2021/05/31 06:05:15;;;;;;;13.63;12.32;;;15.00;51.70;;;;;;4970088;28;20264;-80
2021/05/31 06:07:41;;;;;;;14.55;13.13;;;15.10;51.90;;;;;;4968480;28;20049;-78
2021/05/31 06:10:08;;;;;;;14.35;12.88;;;15.20;52.00;;;;;;4969660;28;20030;-77
2021/05/31 06:12:34;;;;;;;25.05;19.92;;;15.30;52.20;;;;;;4970856;28;20058;-77
2021/05/31 06:15:00;;;;;;;26.05;21.27;;;15.40;52.40;;;;;;4970766;28;20437;-82
2021/05/31 06:17:26;;;;;;;29.63;24.33;;;15.60;52.60;;;;;;4968826;28;20035;-80
2021/05/31 06:19:52;;;;;;;24.65;21.63;;;15.70;52.80;;;;;;4968111;28;20057;-78
2021/05/31 06:22:18;;;;;;;31.55;23.92;;;15.80;52.80;;;;;;4967616;28;20086;-79
2021/05/31 06:24:46;;;;;;;31.60;25.20;;;15.90;52.80;;;;;;4969704;28;20351;-77
2021/05/31 06:27:12;;;;;;;24.25;21.80;;;16.00;52.90;;;;;;4969006;28;20446;-77
2021/05/31 06:29:38;;;;;;;30.45;23.42;;;16.10;53.00;;;;;;4969259;28;20034;-79
2021/05/31 06:32:04;;;;;;;31.35;24.27;;;16.20;53.00;;;;;;4968885;28;20035;-78
2021/05/31 06:34:30;;;;;;;27.95;24.60;;;16.40;53.30;;;;;;4969358;28;20185;-76
2021/05/31 06:36:56;;;;;;;26.15;23.33;;;16.50;53.30;;;;;;4969282;28;20394;-77
2021/05/31 06:39:22;;;;;;;26.45;23.40;;;16.70;53.40;;;;;;4951056;28;20034;-77
2021/05/31 06:41:49;;;;;;;29.00;24.48;;;16.80;53.50;;;;;;4969046;28;20042;-75
2021/05/31 06:44:16;;;;;;;26.95;24.15;;;17.00;53.60;;;;;;4967873;28;20015;-79
2021/05/31 06:46:43;;;;;;;29.10;23.08;;;17.20;53.70;;;;;;4968636;28;20073;-77
2021/05/31 06:49:10;;;;;;;29.13;23.52;;;17.40;53.80;;;;;;4951479;28;20081;-75
2021/05/31 06:51:36;;;;;;;30.27;22.92;;;17.60;53.80;;;;;;4967319;28;20038;-76
2021/05/31 06:54:02;;;;;;;28.40;23.60;;;17.70;53.60;;;;;;4950929;28;20031;-75
2021/05/31 06:56:29;;;;;;;25.23;22.48;;;17.90;53.70;;;;;;4969123;28;20454;-76
2021/05/31 06:58:55;;;;;;;27.08;23.55;;;18.10;53.70;;;;;;4968615;28;20027;-75
2021/05/31 07:01:21;;;;;;;25.50;21.50;;;18.20;53.50;;;;;;4965893;28;20402;-75
2021/05/31 07:03:46;;;;;;;30.25;23.58;;;18.40;53.60;;;;;;4968020;28;20034;-74
2021/05/31 07:06:12;;;;;;;25.45;22.08;;;18.60;53.60;;;;;;4966975;28;20050;-74
2021/05/31 07:08:38;;;;;;;23.23;20.98;;;18.70;53.40;;;;;;4962281;28;20447;-74
2021/05/31 07:11:11;;;;;;;25.23;22.52;;;18.90;53.30;;;;;;4966292;28;20039;-76
2021/05/31 07:13:37;;;;;;;27.85;22.08;;;19.10;53.30;;;;;;4950228;28;20194;-75
2021/05/31 07:16:03;;;;;;;28.73;21.73;;;19.20;53.00;;;;;;4946941;28;20058;-75
2021/05/31 07:18:29;;;;;;;25.38;21.58;;;19.40;53.00;;;;;;4956862;28;20041;-78
2021/05/31 07:20:55;;;;;;;28.67;22.40;;;19.60;53.00;;;;;;4951128;28;20471;-79
2021/05/31 07:23:21;;;;;;;28.02;21.77;;;19.80;52.90;;;;;;4968217;28;20023;-76
2021/05/31 07:25:48;;;;;;;22.60;20.30;;;20.00;52.90;;;;;;4968388;28;20058;-76
2021/05/31 07:28:14;;;;;;;24.95;20.85;;;20.20;52.80;;;;;;4968143;28;20038;-76
2021/05/31 07:30:40;;;;;;;25.98;22.48;;;20.50;52.90;;;;;;4967888;28;20031;-77
2021/05/31 07:33:10;;;;;;;22.85;19.55;;;20.60;52.50;;;;;;4968008;28;20121;-80
2021/05/31 07:35:37;;;;;;;23.83;21.45;;;20.80;52.40;;;;;;4967818;28;20060;-80
2021/05/31 07:38:04;;;;;;;23.27;20.90;;;21.10;52.30;;;;;;4967760;28;20490;-79
2021/05/31 07:40:30;;;;;;;24.30;21.08;;;21.30;52.20;;;;;;4967950;28;20093;-79
2021/05/31 07:42:56;;;;;;;25.92;22.52;;;21.60;52.40;;;;;;4968239;28;20082;-80
2021/05/31 07:45:22;;;;;;;27.80;22.75;;;21.90;52.20;;;;;;4967967;28;20035;-79
2021/05/31 07:47:49;;;;;;;23.98;21.55;;;22.10;51.90;;;;;;4967033;28;20042;-80
2021/05/31 07:50:16;;;;;;;23.83;21.40;;;22.40;51.80;;;;;;4968026;28;20130;-77
2021/05/31 07:52:42;;;;;;;28.73;21.92;;;22.70;51.70;;;;;;4967677;28;20129;-77
2021/05/31 07:55:14;;;;;;;27.23;20.95;;;22.90;51.50;;;;;;4968296;28;20460;-79
2021/05/31 07:57:42;;;;;;;23.30;20.75;;;23.20;51.20;;;;;;4967505;28;20038;-79
2021/05/31 08:00:11;;;;;;;22.52;19.58;;;23.50;51.20;;;;;;4967667;28;20866;-79
2021/05/31 08:02:43;;;;;;;24.00;21.05;;;23.80;50.90;;;;;;4967879;28;20126;-77
2021/05/31 08:05:14;;;;;;;25.92;20.48;;;24.10;50.80;;;;;;4968134;28;20038;-80
2021/05/31 08:07:44;;;;;;;22.42;20.15;;;24.30;50.50;;;;;;4967614;28;20159;-81
2021/05/31 08:10:11;;;;;;;24.50;19.58;;;24.60;50.40;;;;;;4966619;28;20554;-78
2021/05/31 08:12:38;;;;;;;21.92;19.33;;;25.00;50.20;;;;;;4968143;28;20498;-79
2021/05/31 08:15:06;;;;;;;20.73;18.38;;;25.20;49.50;;;;;;4971690;28;20034;-79
2021/05/31 08:17:33;;;;;;;20.63;18.48;;;25.50;48.70;;;;;;4971528;28;20042;-78
2021/05/31 08:19:59;;;;;;;22.50;20.08;;;25.80;48.20;;;;;;4969996;28;20487;-81
2021/05/31 08:22:25;;;;;;;22.98;20.55;;;26.10;47.80;;;;;;4971497;28;20110;-79
2021/05/31 08:24:51;;;;;;;23.80;21.30;;;26.30;47.20;;;;;;4970789;28;20031;-80
2021/05/31 08:27:17;;;;;;;21.15;18.88;;;26.60;46.70;;;;;;4970494;28;20039;-80
2021/05/31 08:29:43;;;;;;;22.13;19.80;;;26.90;46.30;;;;;;4969891;28;20459;-81
2021/05/31 08:32:09;;;;;;;22.08;19.77;;;27.10;45.80;;;;;;4970985;28;20452;-82
2021/05/31 08:34:35;;;;;;;21.80;19.42;;;27.30;45.30;;;;;;4970967;28;20030;-81
2021/05/31 08:37:01;;;;;;;19.45;17.58;;;27.40;44.70;;;;;;4970335;28;20053;-81
2021/05/31 08:39:27;;;;;;;21.80;17.83;;;27.60;44.30;;;;;;4968977;28;20073;-78
2021/05/31 08:41:53;;;;;;;20.48;18.48;;;27.70;43.70;;;;;;4970767;28;20039;-76
2021/05/31 08:44:19;;;;;;;19.48;17.40;;;27.80;43.20;;;;;;4970427;28;20027;-78
2021/05/31 08:46:45;;;;;;;19.83;16.73;;;27.90;42.70;;;;;;4970439;28;20057;-75
2021/05/31 08:49:12;;;;;;;18.40;16.80;;;27.90;42.40;;;;;;4969330;28;20104;-82
2021/05/31 08:51:38;;;;;;;20.10;17.83;;;27.90;42.20;;;;;;4969426;28;20066;-77
2021/05/31 08:54:06;;;;;;;19.80;17.98;;;27.90;42.10;;;;;;4969628;28;20041;-82
2021/05/31 08:56:32;;;;;;;19.13;17.33;;;27.80;42.00;;;;;;4970700;28;20045;-79
2021/05/31 08:58:59;;;;;;;20.95;18.48;;;27.60;41.90;;;;;;4970719;28;20026;-82
2021/05/31 09:01:27;;;;;;;20.90;18.77;;;27.50;41.90;;;;;;4969261;28;20101;-81
2021/05/31 09:03:55;;;;;;;21.90;19.83;;;27.30;41.90;;;;;;4970483;28;20023;-78
2021/05/31 09:06:22;;;;;;;22.02;19.92;;;27.00;42.10;;;;;;4969897;28;20502;-77
2021/05/31 09:09:06;;;;;;;21.63;19.42;;;26.50;42.60;;;;;;4967307;28;20660;-76
2021/05/31 09:11:33;;;;;;;21.70;19.48;;;26.10;43.30;;;;;;4960192;28;20475;-76
2021/05/31 09:14:00;;;;;;;24.00;21.80;;;25.70;44.00;;;;;;4969074;28;20058;-76
2021/05/31 09:16:29;;;;;;;23.13;20.92;;;25.40;44.50;;;;;;4966593;28;20051;-76
2021/05/31 09:19:02;;;;;;;24.40;22.00;;;25.20;44.90;;;;;;4969387;28;20030;-83
2021/05/31 09:21:29;;;;;;;;;;;25.10;45.10;;;;;;4971121;28;20077;-82
2021/05/31 09:24:01;;;;;;;25.25;22.55;;;25.10;45.30;;;;;;4969495;28;19917;-79
2021/05/31 09:26:27;;;;;;;28.80;23.80;;;25.10;45.10;;;;;;4968442;28;20113;-85
2021/05/31 09:28:59;;;;;;;25.13;22.65;;;25.10;45.20;;;;;;4970151;28;20033;-80
2021/05/31 09:31:27;;;;;;;26.05;23.30;;;25.00;45.20;;;;;;4968291;28;20417;-80
2021/05/31 09:34:03;;;;;;;24.38;22.08;;;25.00;45.40;;;;;;4966003;28;20042;-79
2021/05/31 09:36:31;;;;;;;24.15;21.67;;;24.90;45.30;;;;;;4949965;28;20039;-81
2021/05/31 09:38:58;;;;;;;25.90;23.17;;;24.80;45.30;;;;;;4957479;28;20039;-82
2021/05/31 09:41:30;;;;;;;26.08;23.38;;;24.70;45.50;;;;;;4967662;28;20717;-87
2021/05/31 09:43:59;;;;;;;26.63;23.88;;;24.60;45.60;;;;;;4968873;28;20069;-85
2021/05/31 09:46:44;;;;;;;27.75;24.83;;;24.50;45.70;;;;;;4969722;28;20133;-88
2021/05/31 09:49:18;;;;;;;28.98;24.60;;;24.30;45.60;;;;;;4970087;28;20030;-86
2021/05/31 09:52:02;;;;;;;28.23;25.17;;;24.30;45.70;;;;;;4970032;28;20471;-85
2021/05/31 09:54:37;;;;;;;26.35;23.55;;;24.20;45.70;;;;;;4967736;28;20062;-79
2021/05/31 09:57:32;;;;;;;27.50;23.38;;;24.20;45.90;;;;;;4966970;28;20050;-81
2021/05/31 10:00:03;;;;;;;24.33;21.98;;;24.10;46.00;;;;;;4969066;28;20101;-80
2021/05/31 10:10:30;;;;;;;25.33;22.63;;;24.10;46.10;;;;;;4970623;28;20031;-83
2021/05/31 10:12:56;;;;;;;24.27;21.67;;;24.10;46.30;;;;;;4970518;28;20038;-86
2021/05/31 10:15:25;;;;;;;23.02;20.73;;;24.10;46.40;;;;;;4970106;28;20027;-85
2021/05/31 10:17:56;;;;;;;27.02;20.75;;;24.10;46.30;;;;;;4968549;28;20039;-80
2021/05/31 10:20:23;;;;;;;27.58;22.58;;;24.10;46.30;;;;;;4969884;28;20031;-77
2021/05/31 10:22:49;;;;;;;22.35;20.08;;;24.10;46.30;;;;;;4968321;28;20482;-82
2021/05/31 10:25:17;;;;;;;23.77;21.08;;;24.10;46.30;;;;;;4969772;28;20274;-81
2021/05/31 10:27:45;;;;;;;26.88;20.88;;;24.20;46.60;;;;;;4970274;28;20046;-82
2021/05/31 10:30:16;;;;;;;22.48;20.25;;;24.20;46.60;;;;;;4969095;28;20402;-85
2021/05/31 10:32:43;;;;;;;21.95;19.70;;;24.20;46.50;;;;;;4969376;28;20039;-81
2021/05/31 10:35:20;;;;;;;22.90;20.17;;;24.30;46.70;;;;;;4968551;28;20066;-80
2021/05/31 10:37:58;;;;;;;24.48;20.88;;;24.30;46.60;;;;;;4968942;28;20041;-85
2021/05/31 10:40:42;;;;;;;22.80;20.52;;;24.30;46.60;;;;;;4969995;28;20026;-84
2021/05/31 10:43:10;;;;;;;22.75;20.20;;;24.40;46.80;;;;;;4969756;28;20077;-81
2021/05/31 10:45:37;;;;;;;26.33;21.83;;;24.40;46.60;;;;;;4969784;28;20564;-84
2021/05/31 10:48:06;;;;;;;23.20;20.90;;;24.50;46.80;;;;;;4967073;28;20042;-87
2021/05/31 10:50:37;;;;;;;23.23;20.73;;;24.50;46.70;;;;;;4968201;28;20494;-78
2021/05/31 10:53:08;;;;;;;26.13;19.30;;;24.50;46.80;;;;;;4968776;28;20078;-80
2021/05/31 10:55:34;;;;;;;23.20;20.70;;;24.60;46.90;;;;;;4967337;28;20128;-80
2021/05/31 10:58:00;;;;;;;24.23;21.73;;;24.70;47.10;;;;;;4967937;28;20146;-80
2021/05/31 11:00:32;;;;;;;23.77;21.48;;;24.70;46.90;;;;;;4969688;28;20065;-80
2021/05/31 11:03:24;;;;;;;25.83;20.73;;;24.80;47.10;;;;;;4966780;28;20243;-80
2021/05/31 11:05:51;;;;;;;23.20;20.90;;;24.80;46.90;;;;;;4966415;28;20113;-80
2021/05/31 11:08:30;;;;;;;24.60;22.00;;;24.90;47.20;;;;;;4968135;28;20027;-79
2021/05/31 11:10:59;;;;;;;23.65;21.05;;;24.90;47.10;;;;;;4966987;28;20402;-77
2021/05/31 11:13:26;;;;;;;24.88;22.27;;;25.00;47.30;;;;;;4969454;28;20035;-80
2021/05/31 11:16:07;;;;;;;24.77;22.40;;;25.00;47.30;;;;;;4968023;28;20564;-80
2021/05/31 11:18:44;;;;;;;22.33;19.70;;;25.10;47.20;;;;;;4968018;28;20026;-80
2021/05/31 11:21:22;;;;;;;23.35;21.08;;;25.10;47.00;;;;;;4968235;28;20390;-77
2021/05/31 11:23:59;;;;;;;24.27;21.75;;;25.20;47.10;;;;;;4966957;28;20078;-77
2021/05/31 11:26:34;;;;;;;26.55;20.80;;;25.30;47.00;;;;;;4967179;28;20030;-78
2021/05/31 11:29:02;;;;;;;24.85;20.77;;;25.30;46.90;;;;;;4967786;28;20038;-77
2021/05/31 11:31:28;;;;;;;23.00;20.63;;;25.40;46.90;;;;;;4967824;28;20479;-77
2021/05/31 11:33:56;;;;;;;22.83;20.52;;;25.50;47.00;;;;;;4968071;28;20379;-78
2021/05/31 11:36:33;;;;;;;21.05;19.00;;;25.50;47.00;;;;;;4967839;28;20422;-78
2021/05/31 11:39:00;;;;;;;22.80;19.52;;;25.50;46.80;;;;;;4967163;28;20546;-80
2021/05/31 11:41:53;;;;;;;22.77;20.38;;;25.60;46.90;;;;;;4966277;28;20497;-80
2021/05/31 11:44:28;;;;;;;21.38;19.15;;;25.70;47.10;;;;;;4964176;28;20043;-81
2021/05/31 11:46:56;;;;;;;20.17;18.13;;;25.70;47.00;;;;;;4967360;28;20059;-79
2021/05/31 11:49:24;;;;;;;21.77;19.63;;;25.80;46.90;;;;;;4966376;28;20079;-80
2021/05/31 11:52:04;;;;;;;20.55;18.17;;;25.80;46.80;;;;;;4966599;28;20113;-80
2021/05/31 11:54:34;;;;;;;20.38;18.05;;;25.90;46.80;;;;;;4966879;28;20077;-79
2021/05/31 11:57:06;;;;;;;19.63;17.50;;;25.90;46.70;;;;;;4966474;28;20448;-80
2021/05/31 11:59:43;;;;;;;21.30;19.10;;;26.00;46.70;;;;;;4967581;28;20031;-78
2021/05/31 12:02:12;;;;;;;20.30;18.23;;;26.00;46.50;;;;;;4966997;28;20043;-79
2021/05/31 12:04:40;;;;;;;20.73;17.80;;;26.00;47.10;;;;;;4966778;28;20090;-79
2021/05/31 12:07:08;;;;;;;20.33;17.17;;;26.10;46.60;;;;;;4968228;28;20042;-83
2021/05/31 12:09:38;;;;;;;19.20;17.40;;;26.10;46.40;;;;;;4967432;28;20038;-79
2021/05/31 12:12:04;;;;;;;20.05;16.52;;;26.20;46.60;;;;;;4967225;28;20045;-79
2021/05/31 12:14:48;;;;;;;18.85;16.98;;;26.20;46.60;;;;;;4965925;28;20031;-77
2021/05/31 12:17:16;;;;;;;17.00;15.30;;;26.30;46.60;;;;;;4967054;28;20046;-81
2021/05/31 12:19:44;;;;;;;17.95;16.08;;;26.30;46.70;;;;;;4967537;28;20058;-79
2021/05/31 12:22:11;;;;;;;16.55;14.85;;;26.40;46.70;;;;;;4965583;28;20034;-83
2021/05/31 12:24:42;;;;;;;15.20;13.60;;;26.50;46.90;;;;;;4965876;28;20023;-78
2021/05/31 12:27:08;;;;;;;14.82;13.25;;;26.60;46.70;;;;;;4967186;28;20055;-78
2021/05/31 12:29:38;;;;;;;16.63;13.13;;;26.70;46.60;;;;;;4966944;28;20031;-77
2021/05/31 12:32:12;;;;;;;14.25;12.98;;;26.80;46.40;;;;;;4967095;28;20125;-77
2021/05/31 12:34:39;;;;;;;14.68;13.30;;;26.80;46.10;;;;;;4967046;28;20053;-78
2021/05/31 12:37:12;;;;;;;15.95;14.20;;;26.90;46.00;;;;;;4967365;28;20455;-78
2021/05/31 12:39:49;;;;;;;14.82;13.15;;;27.00;45.80;;;;;;4965835;28;20364;-78
2021/05/31 12:42:29;;;;;;;15.70;14.10;;;27.00;45.70;;;;;;4966540;28;20386;-78
2021/05/31 12:45:06;;;;;;;14.55;13.15;;;27.10;45.30;;;;;;4966991;28;20018;-78
2021/05/31 12:47:35;;;;;;;15.00;13.60;;;27.10;45.00;;;;;;4965646;28;20451;-77
2021/05/31 12:50:03;;;;;;;17.05;14.38;;;27.20;44.90;;;;;;4967148;28;20073;-78
2021/05/31 12:52:32;;;;;;;18.80;14.18;;;27.20;44.80;;;;;;4966941;28;20035;-78
2021/05/31 12:55:16;;;;;;;15.70;14.25;;;27.30;44.80;;;;;;4965642;28;20091;-80
2021/05/31 12:57:44;;;;;;;15.38;13.77;;;27.30;44.80;;;;;;4965592;28;20082;-79